createdAt,value
2019-04-20T00:00:52.945Z,19.13
2019-04-20T00:03:23.625Z,18.47
2019-04-20T00:05:55.175Z,19.97
2019-04-20T00:08:27.924Z,18.00
2019-04-20T00:11:02.616Z,17.27
2019-04-20T00:13:38.411Z,17.67
2019-04-20T00:16:00.066Z,17.57
2019-04-20T00:18:35.537Z,20.53
2019-04-20T00:21:19.691Z,21.20
2019-04-20T00:23:53.144Z,18.63
2019-04-20T00:27:01.931Z,19.07
2019-04-20T00:29:24.018Z,20.00
2019-04-20T00:31:50.427Z,20.33
2019-04-20T00:34:18.458Z,22.37
2019-04-20T00:36:43.362Z,20.43
2019-04-20T00:39:18.864Z,19.50
2019-04-20T00:41:55.345Z,18.57
2019-04-20T00:44:27.535Z,20.80
2019-04-20T00:47:04.494Z,20.73
2019-04-20T00:49:43.273Z,24.20
2019-04-20T00:52:48.079Z,22.53
2019-04-20T00:54:45.328Z,20.63
2019-04-20T00:57:31.962Z,20.80
2019-04-20T01:00:10.978Z,22.73
2019-04-20T01:02:34.896Z,21.77
2019-04-20T01:05:12.847Z,20.53
2019-04-20T01:07:50.446Z,20.97
2019-04-20T01:10:17.338Z,21.97
2019-04-20T01:12:53.935Z,21.53
2019-04-20T01:15:29.005Z,20.30
2019-04-20T01:17:49.217Z,22.93
2019-04-20T01:20:18.179Z,22.77
2019-04-20T01:22:56.086Z,22.87
2019-04-20T01:25:27.254Z,21.43
2019-04-20T01:28:07.773Z,23.40
2019-04-20T01:30:30.297Z,20.63
2019-04-20T01:33:10.726Z,26.60
2019-04-20T01:35:44.091Z,26.03
2019-04-20T01:38:16.391Z,25.63
2019-04-20T01:40:30.072Z,23.60
2019-04-20T01:43:01.540Z,24.53
2019-04-20T01:45:34.647Z,25.27
2019-04-20T01:48:02.858Z,29.73
2019-04-20T01:50:35.307Z,24.83
2019-04-20T01:53:12.499Z,25.07
2019-04-20T01:55:50.724Z,25.77
2019-04-20T01:58:39.655Z,28.53
2019-04-20T02:01:36.189Z,25.33
2019-04-20T02:04:20.369Z,23.63
2019-04-20T02:06:51.538Z,25.33
2019-04-20T02:09:22.224Z,24.80
2019-04-20T02:11:50.504Z,25.17
2019-04-20T02:14:31.983Z,27.17
2019-04-20T02:17:03.000Z,23.27
2019-04-20T02:19:34.675Z,25.20
2019-04-20T02:22:03.979Z,26.33
2019-04-20T02:24:24.243Z,27.37
2019-04-20T02:26:57.883Z,26.20
2019-04-20T02:30:07.504Z,26.37
2019-04-20T02:32:33.919Z,24.13
2019-04-20T02:35:09.393Z,25.73
2019-04-20T02:38:03.219Z,24.03
2019-04-20T02:45:49.005Z,26.07
2019-04-20T02:50:44.564Z,23.83
2019-04-20T02:53:09.905Z,29.20
2019-04-20T02:55:48.566Z,27.60
2019-04-20T03:00:43.250Z,25.67
2019-04-20T03:03:11.255Z,23.93
2019-04-20T03:05:39.446Z,25.20
2019-04-20T03:08:20.807Z,27.40
2019-04-20T03:10:54.988Z,23.27
2019-04-20T03:13:26.944Z,24.13
2019-04-20T03:15:51.974Z,26.20
2019-04-20T03:18:25.516Z,23.37
2019-04-20T03:21:00.709Z,22.93
2019-04-20T03:23:35.931Z,21.97
2019-04-20T03:26:06.429Z,24.67
2019-04-20T03:28:50.230Z,22.47
2019-04-20T03:34:22.732Z,28.43
2019-04-20T03:36:44.634Z,22.03
2019-04-20T03:39:04.216Z,22.47
2019-04-20T03:41:26.405Z,21.97
2019-04-20T03:43:54.153Z,23.93
2019-04-20T03:46:30.914Z,22.70
2019-04-20T03:49:16.959Z,23.50
2019-04-20T03:51:47.108Z,22.27
2019-04-20T03:54:32.158Z,24.50
2019-04-20T03:57:29.718Z,26.13
2019-04-20T04:00:00.700Z,24.83
2019-04-20T04:03:01.576Z,25.67
2019-04-20T04:05:27.868Z,28.47
2019-04-20T04:07:45.327Z,24.53
2019-04-20T04:10:27.239Z,27.37
2019-04-20T04:13:09.530Z,26.43
2019-04-20T04:16:04.274Z,26.63
2019-04-20T04:18:35.461Z,28.03
2019-04-20T04:21:05.233Z,27.13
2019-04-20T04:23:47.086Z,27.47
2019-04-20T04:26:18.683Z,27.17
2019-04-20T04:28:49.053Z,27.50
2019-04-20T04:31:28.204Z,29.87
2019-04-20T04:33:58.159Z,27.77
2019-04-20T04:36:29.004Z,25.43
2019-04-20T04:39:05.455Z,26.73
2019-04-20T04:41:32.311Z,28.93
2019-04-20T04:44:00.053Z,29.97
2019-04-20T04:46:14.630Z,29.97
2019-04-20T04:48:49.424Z,29.17
2019-04-20T04:51:22.723Z,30.43
2019-04-20T04:53:55.124Z,29.23
2019-04-20T04:56:21.996Z,31.37
2019-04-20T04:58:49.561Z,27.80
2019-04-20T05:01:24.884Z,28.77
2019-04-20T05:04:14.760Z,31.50
2019-04-20T05:06:34.410Z,29.47
2019-04-20T05:08:58.475Z,31.40
2019-04-20T05:11:25.858Z,26.63
2019-04-20T05:14:02.044Z,32.83
2019-04-20T05:16:46.406Z,30.17
2019-04-20T05:19:19.625Z,29.80
2019-04-20T05:24:43.885Z,28.87
2019-04-20T05:27:34.468Z,29.43
2019-04-20T05:29:45.112Z,30.07
2019-04-20T05:32:18.561Z,29.13
2019-04-20T05:35:12.202Z,29.90
2019-04-20T05:37:45.770Z,33.33
2019-04-20T05:40:10.484Z,27.23
2019-04-20T05:42:50.000Z,29.70
2019-04-20T05:45:15.460Z,30.33
2019-04-20T05:47:50.732Z,30.17
2019-04-20T05:50:23.240Z,29.47
2019-04-20T05:53:03.229Z,27.50
2019-04-20T05:55:34.503Z,26.83
2019-04-20T05:58:06.982Z,29.03
2019-04-20T06:00:33.542Z,29.50
2019-04-20T06:03:02.368Z,30.43
2019-04-20T06:05:38.869Z,26.60
2019-04-20T06:08:09.380Z,27.23
2019-04-20T06:10:43.654Z,27.93
2019-04-20T06:13:00.223Z,28.97
2019-04-20T06:15:51.344Z,26.50
2019-04-20T06:18:17.687Z,27.40
2019-04-20T06:20:52.551Z,25.30
2019-04-20T06:23:41.331Z,29.07
2019-04-20T06:26:22.724Z,28.73
2019-04-20T06:28:33.794Z,27.57
2019-04-20T06:30:55.946Z,27.90
2019-04-20T06:36:47.241Z,27.47
2019-04-20T06:42:07.101Z,28.53
2019-04-20T06:44:30.438Z,27.07
2019-04-20T06:47:15.500Z,26.93
2019-04-20T06:52:09.978Z,26.13
2019-04-20T06:54:48.646Z,27.50
2019-04-20T06:57:24.057Z,29.80
2019-04-20T06:59:53.513Z,27.33
2019-04-20T07:02:37.278Z,27.40
2019-04-20T07:05:09.562Z,27.50
2019-04-20T07:07:48.049Z,25.97
2019-04-20T07:10:18.247Z,24.47
2019-04-20T07:12:46.707Z,25.67
2019-04-20T07:15:18.984Z,24.13
2019-04-20T07:18:16.937Z,26.53
2019-04-20T07:20:42.753Z,26.13
2019-04-20T07:23:20.231Z,23.50
2019-04-20T07:25:42.239Z,28.80
2019-04-20T07:28:12.556Z,26.70
2019-04-20T07:30:46.406Z,24.60
2019-04-20T07:33:25.618Z,27.60
2019-04-20T07:35:52.451Z,25.33
2019-04-20T07:38:43.072Z,24.40
2019-04-20T07:41:08.751Z,23.13
2019-04-20T07:43:51.391Z,25.60
2019-04-20T07:46:23.229Z,25.77
2019-04-20T07:48:42.270Z,22.63
2019-04-20T07:51:08.145Z,24.77
2019-04-20T07:53:45.072Z,24.35
2019-04-20T07:56:27.011Z,24.75
2019-04-20T07:58:46.047Z,21.37
2019-04-20T08:02:09.559Z,21.57
2019-04-20T08:04:36.454Z,22.80
2019-04-20T08:06:58.222Z,21.73
2019-04-20T08:09:34.972Z,23.92
2019-04-20T08:12:25.619Z,23.38
2019-04-20T08:15:00.829Z,21.12
2019-04-20T08:17:31.441Z,21.35
2019-04-20T08:20:07.517Z,21.80
2019-04-20T08:22:42.099Z,25.75
2019-04-20T08:25:08.906Z,21.00
2019-04-20T08:27:46.996Z,22.87
2019-04-20T08:30:46.379Z,20.35
2019-04-20T08:33:28.078Z,22.27
2019-04-20T08:35:58.631Z,21.37
2019-04-20T08:40:53.956Z,21.48
2019-04-20T08:43:46.845Z,21.93
2019-04-20T08:46:13.594Z,19.40
2019-04-20T08:48:42.468Z,22.30
2019-04-20T08:51:17.224Z,23.12
2019-04-20T08:53:41.793Z,20.10
2019-04-20T08:56:08.354Z,20.27
2019-04-20T08:58:24.942Z,21.25
2019-04-20T09:00:58.759Z,20.00
2019-04-20T09:03:29.109Z,20.55
2019-04-20T09:06:04.630Z,22.00
2019-04-20T09:08:30.802Z,20.50
2019-04-20T09:11:16.782Z,25.75
2019-04-20T09:13:38.894Z,18.73
2019-04-20T09:16:00.028Z,21.35
2019-04-20T09:18:41.908Z,19.95
2019-04-20T09:21:13.640Z,17.25
2019-04-20T09:23:49.656Z,17.98
2019-04-20T09:26:23.240Z,21.00
2019-04-20T09:28:56.661Z,18.73
2019-04-20T09:31:43.550Z,18.80
2019-04-20T09:34:46.584Z,16.37
2019-04-20T09:37:41.660Z,19.37
2019-04-20T09:40:25.604Z,19.98
2019-04-20T09:43:00.393Z,19.05
2019-04-20T09:45:39.920Z,18.12
2019-04-20T09:48:15.771Z,18.02
2019-04-20T09:51:05.060Z,17.00
2019-04-20T09:53:29.944Z,18.87
2019-04-20T09:56:01.858Z,20.62
2019-04-20T09:58:33.736Z,18.73
2019-04-20T10:01:06.760Z,17.30
2019-04-20T10:03:25.151Z,19.05
2019-04-20T10:06:01.367Z,18.62
2019-04-20T10:08:34.056Z,19.73
2019-04-20T10:11:01.499Z,17.02
2019-04-20T10:13:32.145Z,17.92
2019-04-20T10:16:01.767Z,19.05
2019-04-20T10:18:39.361Z,20.35
2019-04-20T10:21:09.567Z,19.48
2019-04-20T10:23:38.728Z,22.35
2019-04-20T10:26:09.096Z,16.30
2019-04-20T10:28:39.401Z,22.07
2019-04-20T10:31:14.757Z,18.10
2019-04-20T10:33:44.068Z,17.90
2019-04-20T10:36:28.155Z,19.67
2019-04-20T10:38:58.429Z,19.55
2019-04-20T10:41:35.958Z,20.30
2019-04-20T10:43:58.753Z,16.65
2019-04-20T10:46:28.885Z,17.80
2019-04-20T10:49:02.815Z,19.95
2019-04-20T10:51:29.517Z,18.90
2019-04-20T10:53:58.596Z,22.48
2019-04-20T10:56:27.641Z,17.00
2019-04-20T10:58:59.695Z,20.75
2019-04-20T11:01:29.663Z,17.80
2019-04-20T11:03:58.821Z,18.82
2019-04-20T11:06:34.558Z,20.02
2019-04-20T11:09:04.841Z,23.25
2019-04-20T11:11:35.424Z,19.25
2019-04-20T11:14:09.241Z,20.37
2019-04-20T11:16:36.262Z,21.93
2019-04-20T11:19:05.560Z,19.73
2019-04-20T11:21:36.624Z,20.52
2019-04-20T11:24:08.497Z,21.12
2019-04-20T11:26:42.296Z,20.45
2019-04-20T11:29:11.524Z,19.30
2019-04-20T11:31:46.486Z,19.50
2019-04-20T11:34:14.866Z,18.67
2019-04-20T11:36:41.700Z,19.25
2019-04-20T11:39:14.595Z,20.23
2019-04-20T11:41:43.759Z,19.07
2019-04-20T11:44:13.792Z,21.17
2019-04-20T11:46:42.995Z,18.70
2019-04-20T11:49:13.212Z,19.32
2019-04-20T11:51:43.445Z,19.65
2019-04-20T11:54:12.625Z,18.55
2019-04-20T11:56:44.214Z,18.42
2019-04-20T11:59:12.917Z,15.85
2019-04-20T12:02:07.734Z,15.80
2019-04-20T12:04:48.267Z,18.02
2019-04-20T12:07:12.980Z,17.90
2019-04-20T12:09:41.945Z,16.60
2019-04-20T12:12:22.339Z,15.53
2019-04-20T12:14:42.840Z,15.48
2019-04-20T12:17:13.584Z,16.23
2019-04-20T12:19:43.914Z,17.57
2019-04-20T12:22:13.874Z,18.57
2019-04-20T12:24:44.453Z,17.77
2019-04-20T12:27:14.620Z,17.05
2019-04-20T12:29:43.694Z,16.17
2019-04-20T12:32:12.766Z,17.80
2019-04-20T12:34:41.747Z,15.43
2019-04-20T12:37:11.214Z,14.47
2019-04-20T12:39:40.123Z,14.10
2019-04-20T12:42:09.599Z,16.65
2019-04-20T12:44:39.647Z,13.65
2019-04-20T12:47:09.903Z,17.40
2019-04-20T12:49:39.162Z,16.75
2019-04-20T12:52:08.460Z,13.08
2019-04-20T12:54:39.988Z,15.05
2019-04-20T12:57:08.908Z,14.60
2019-04-20T12:59:39.184Z,14.95
2019-04-20T13:02:09.229Z,13.38
2019-04-20T13:04:39.370Z,15.45
2019-04-20T13:07:09.746Z,16.50
2019-04-20T13:09:46.464Z,13.58
2019-04-20T13:12:34.368Z,15.15
2019-04-20T13:15:26.562Z,17.37
2019-04-20T13:29:35.544Z,15.43
2019-04-20T14:04:34.744Z,10.20
2019-04-20T14:04:41.068Z,10.18
2019-04-20T14:05:32.721Z,13.38
2019-04-20T14:08:05.241Z,11.05
2019-04-20T14:10:35.175Z,10.00
2019-04-20T14:13:13.058Z,11.73
2019-04-20T14:15:37.308Z,10.03
2019-04-20T14:18:06.971Z,10.78
2019-04-20T14:20:36.250Z,12.40
2019-04-20T14:23:05.383Z,10.38
2019-04-20T14:25:34.509Z,10.98
2019-04-20T14:28:03.379Z,10.48
2019-04-20T14:30:33.073Z,10.65
2019-04-20T14:33:02.987Z,10.45
2019-04-20T14:35:32.653Z,11.90
2019-04-20T14:38:01.737Z,9.70
2019-04-20T14:40:30.852Z,10.45
2019-04-20T14:43:00.430Z,11.90
2019-04-20T14:45:30.336Z,12.25
2019-04-20T14:47:59.596Z,10.65
2019-04-20T14:50:29.843Z,10.63
2019-04-20T14:52:59.787Z,11.03
2019-04-20T14:55:29.264Z,13.00
2019-04-20T14:58:01.614Z,13.35
2019-04-20T15:00:51.312Z,9.40
2019-04-20T15:03:30.349Z,10.28
2019-04-20T15:06:00.369Z,12.88
2019-04-20T15:08:30.414Z,12.90
2019-04-20T15:11:00.909Z,8.85
2019-04-20T15:13:30.821Z,12.30
2019-04-20T15:15:59.830Z,9.43
2019-04-20T15:18:33.585Z,10.63
2019-04-20T15:21:04.041Z,10.10
2019-04-20T15:23:33.207Z,16.00
2019-04-20T15:26:02.496Z,13.45
2019-04-20T15:28:32.358Z,13.55
2019-04-20T15:31:02.557Z,10.75
2019-04-20T15:33:32.746Z,10.03
2019-04-20T15:36:04.501Z,11.83
2019-04-20T15:38:35.470Z,9.18
2019-04-20T15:41:05.317Z,9.05
2019-04-20T15:43:35.342Z,12.25
2019-04-20T15:46:05.467Z,12.03
2019-04-20T15:48:34.543Z,11.80
2019-04-20T15:51:03.776Z,12.90
2019-04-20T15:53:33.527Z,12.45
2019-04-20T15:56:05.018Z,9.95
2019-04-20T15:58:34.537Z,11.10
2019-04-20T16:01:06.246Z,12.43
2019-04-20T16:03:43.707Z,15.13
2019-04-20T16:06:13.583Z,13.18
2019-04-20T16:08:46.362Z,15.10
2019-04-20T16:11:15.607Z,15.60
2019-04-20T16:13:49.443Z,14.55
2019-04-20T16:16:16.185Z,14.23
2019-04-20T16:18:50.684Z,14.15
2019-04-20T16:21:22.992Z,17.42
2019-04-20T16:23:56.920Z,16.45
2019-04-20T16:26:33.891Z,13.13
2019-04-20T16:29:03.834Z,15.48
2019-04-20T16:31:32.923Z,12.98
2019-04-20T16:34:03.215Z,14.87
2019-04-20T16:36:32.532Z,14.47
2019-04-20T16:39:01.915Z,14.35
2019-04-20T16:41:32.639Z,17.60
2019-04-20T16:44:02.896Z,16.50
2019-04-20T16:46:32.122Z,14.60
2019-04-20T16:49:01.201Z,17.48
2019-04-20T16:51:31.067Z,15.05
2019-04-20T16:54:00.049Z,14.60
2019-04-20T16:56:28.837Z,15.13
2019-04-20T16:59:01.407Z,12.15
2019-04-20T17:01:28.199Z,16.32
2019-04-20T17:04:03.888Z,14.35
2019-04-20T17:06:29.797Z,15.20
2019-04-20T17:08:58.823Z,19.02
2019-04-20T17:11:31.834Z,19.05
2019-04-20T17:14:02.147Z,17.73
2019-04-20T17:16:31.966Z,13.90
2019-04-20T17:19:04.194Z,13.40
2019-04-20T17:21:35.552Z,16.95
2019-04-20T17:24:05.304Z,16.65
2019-04-20T17:26:43.528Z,13.95
2019-04-20T17:29:35.830Z,17.00
2019-04-20T17:32:15.854Z,17.05
2019-04-20T17:35:01.983Z,22.02
2019-04-20T17:37:36.103Z,13.20
2019-04-20T17:40:23.841Z,14.75
2019-04-20T17:42:47.292Z,14.93
2019-04-20T17:45:19.634Z,15.13
2019-04-20T17:47:57.899Z,14.47
2019-04-20T17:50:31.863Z,14.35
2019-04-20T18:23:41.011Z,13.68
2019-04-20T18:26:30.589Z,17.40
2019-04-20T18:28:59.201Z,14.23
2019-04-20T18:31:35.969Z,11.60
2019-04-20T18:34:14.515Z,16.05
2019-04-20T18:36:44.122Z,12.70
2019-04-20T18:39:13.653Z,12.55
2019-04-20T18:41:48.040Z,17.27
2019-04-20T18:44:14.809Z,12.88
2019-04-20T18:47:06.967Z,14.93
2019-04-20T18:49:32.243Z,11.53
2019-04-20T18:51:48.006Z,13.53
2019-04-20T18:54:23.513Z,12.13
2019-04-20T18:56:50.906Z,14.45
2019-04-20T18:59:19.118Z,16.90
2019-04-20T19:01:48.806Z,17.40
2019-04-20T19:04:19.710Z,15.93
2019-04-20T19:06:50.046Z,16.15
2019-04-20T19:09:26.167Z,17.07
2019-04-20T19:11:57.192Z,12.58
2019-04-20T19:14:50.935Z,12.93
2019-04-20T19:18:04.299Z,13.85
2019-04-20T19:20:30.739Z,15.43
2019-04-20T19:23:00.109Z,13.90
2019-04-20T19:25:33.102Z,17.05
2019-04-20T19:28:01.462Z,16.48
2019-04-20T19:30:37.296Z,14.33
2019-04-20T19:33:18.752Z,14.60
2019-04-20T19:35:42.101Z,14.28
2019-04-20T19:38:10.427Z,17.37
2019-04-20T19:40:46.747Z,16.45
2019-04-20T19:43:15.565Z,14.85
2019-04-20T19:46:07.286Z,15.72
2019-04-20T19:48:22.474Z,18.48
2019-04-20T19:51:08.449Z,17.73
2019-04-20T19:53:36.514Z,17.73
2019-04-20T19:55:58.854Z,18.32
2019-04-20T19:58:30.354Z,20.85
2019-04-20T20:00:51.755Z,16.52
2019-04-20T20:03:19.837Z,18.65
2019-04-20T20:05:51.834Z,18.57
2019-04-20T20:08:23.834Z,18.15
2019-04-20T20:10:50.728Z,18.52
2019-04-20T20:13:20.426Z,17.27
2019-04-20T20:15:59.919Z,19.15
2019-04-20T20:18:35.360Z,18.65
2019-04-20T20:21:06.094Z,15.10
2019-04-20T20:23:20.869Z,18.77
2019-04-20T20:25:51.398Z,17.85
2019-04-20T20:28:30.702Z,15.72
2019-04-20T20:31:03.450Z,18.52
2019-04-20T20:33:39.577Z,15.63
2019-04-20T20:36:02.219Z,16.67
2019-04-20T20:38:31.287Z,18.95
2019-04-20T20:41:05.701Z,18.17
2019-04-20T20:43:43.513Z,19.17
2019-04-20T20:46:06.090Z,18.60
2019-04-20T20:48:38.808Z,18.10
2019-04-20T20:51:10.425Z,20.70
2019-04-20T20:53:41.718Z,16.17
2019-04-20T20:56:06.106Z,18.55
2019-04-20T20:58:43.284Z,20.15
2019-04-20T21:01:08.941Z,20.92
2019-04-20T21:03:34.634Z,21.45
2019-04-20T21:05:59.928Z,20.20
2019-04-20T21:08:36.198Z,19.90
2019-04-20T21:11:04.834Z,17.90
2019-04-20T21:13:39.343Z,17.27
2019-04-20T21:16:12.924Z,16.80
2019-04-20T21:18:50.464Z,18.52
2019-04-20T21:21:17.907Z,19.92
2019-04-20T21:23:45.519Z,20.70
2019-04-20T21:26:12.777Z,22.98
2019-04-20T21:28:40.062Z,20.45
2019-04-20T21:31:15.966Z,20.48
2019-04-20T21:33:40.594Z,18.07
2019-04-20T21:36:14.581Z,22.40
2019-04-20T21:38:42.786Z,17.40
2019-04-20T21:41:16.200Z,17.92
2019-04-20T21:43:44.587Z,19.67
2019-04-20T21:46:14.208Z,18.87
2019-04-20T21:48:55.945Z,18.70
2019-04-20T21:51:29.339Z,19.77
2019-04-20T21:53:44.498Z,21.12
2019-04-20T21:56:13.478Z,21.23
2019-04-20T21:58:49.423Z,17.80
2019-04-20T22:01:24.254Z,20.10
2019-04-20T22:03:44.769Z,18.12
2019-04-20T22:06:14.114Z,18.23
2019-04-20T22:08:49.771Z,20.68
2019-04-20T22:11:17.874Z,19.80
2019-04-20T22:13:49.335Z,21.30
2019-04-20T22:16:20.055Z,18.37
2019-04-20T22:18:58.229Z,22.77
2019-04-20T22:21:26.515Z,19.15
2019-04-20T22:24:05.698Z,21.68
2019-04-20T22:26:27.704Z,20.12
2019-04-20T22:28:52.044Z,18.85
2019-04-20T22:31:22.137Z,19.48
2019-04-20T22:33:54.388Z,20.48
2019-04-20T22:36:27.384Z,19.85
2019-04-20T22:39:13.832Z,25.43
2019-04-20T22:41:56.504Z,19.87
2019-04-20T22:44:26.296Z,20.12
2019-04-20T22:46:54.275Z,21.33
2019-04-20T22:49:41.813Z,19.13
2019-04-20T22:52:04.106Z,20.03
2019-04-20T22:54:39.687Z,22.97
2019-04-20T22:57:03.331Z,21.27
2019-04-20T22:59:37.415Z,20.23
2019-04-20T23:02:00.006Z,20.43
2019-04-20T23:04:26.687Z,20.40
2019-04-20T23:06:57.152Z,21.60
2019-04-20T23:09:26.787Z,21.23
2019-04-20T23:12:04.899Z,21.57
2019-04-20T23:14:26.602Z,21.80
2019-04-20T23:16:57.469Z,22.15
2019-04-20T23:19:35.713Z,21.20
2019-04-20T23:22:01.276Z,20.00
2019-04-20T23:24:29.170Z,20.50
2019-04-20T23:26:59.339Z,21.37
2019-04-20T23:29:32.659Z,23.17
2019-04-20T23:32:02.982Z,21.27
2019-04-20T23:34:33.901Z,21.63
2019-04-20T23:37:03.037Z,23.57
2019-04-20T23:39:37.372Z,21.17
2019-04-20T23:42:07.468Z,22.30
2019-04-20T23:44:40.032Z,21.23
2019-04-20T23:47:19.853Z,21.63
2019-04-20T23:50:05.664Z,21.87
2019-04-20T23:52:44.387Z,20.33
2019-04-20T23:54:59.070Z,20.73
2019-04-20T23:57:23.810Z,23.13
2019-04-20T23:59:53.769Z,21.00
